Terminal Aerodrome Forecast
Issued by NWS Mt. Holly, NJ

Home | Current Version | Previous Version | Text Only | Print | Product List | Glossary On
Versions: 1 2 3 4 5 6 7 8 9 10 11 12 13 14 15 16 17 18 19 20 21 22 23 24 25 26 27
000
FTUS41 KPHI 242348
TAFPHL
TAF
KPHL 242348Z 2500/2606 30013G20KT P6SM SCT250
     FM250100 31011KT P6SM SKC
     FM250700 29006KT P6SM BKN180
     FM251500 29009G16KT P6SM BKN180
     FM260000 25005KT P6SM BKN100 OVC150=

USA.gov is the U.S. government's official web portal to all federal, state and local government web resources and services.